createdAt,value
2023-01-13T00:01:15.977Z,1.67
2023-01-13T00:06:13.870Z,1.27
2023-01-13T00:08:40.754Z,1.70
2023-01-13T00:11:07.417Z,0.77
2023-01-13T00:13:35.407Z,1.33
2023-01-13T00:16:07.614Z,0.65
2023-01-13T00:18:36.811Z,2.20
2023-01-13T00:21:07.285Z,0.98
2023-01-13T00:23:35.407Z,1.70
2023-01-13T00:26:05.425Z,3.80
2023-01-13T00:28:32.839Z,3.65
2023-01-13T00:31:07.371Z,1.73
2023-01-13T00:33:34.558Z,4.40
2023-01-13T00:36:02.480Z,0.93
2023-01-13T00:38:31.358Z,0.93
2023-01-13T00:41:10.269Z,2.72
2023-01-13T00:43:37.559Z,0.60
2023-01-13T00:46:06.016Z,2.63
2023-01-13T00:48:33.953Z,1.00
2023-01-13T00:51:05.685Z,2.55
2023-01-13T00:53:40.463Z,1.70
2023-01-13T00:56:11.589Z,1.00
2023-01-13T00:58:38.169Z,1.52
2023-01-13T01:01:11.632Z,0.77
2023-01-13T01:03:38.549Z,2.78
2023-01-13T01:06:14.634Z,2.30
2023-01-13T01:08:41.921Z,1.15
2023-01-13T01:11:14.582Z,1.25
2023-01-13T01:13:41.868Z,0.60
2023-01-13T01:16:13.626Z,1.50
2023-01-13T01:18:43.610Z,0.68
2023-01-13T01:21:10.963Z,3.38
2023-01-13T01:23:39.117Z,2.08
2023-01-13T01:26:08.471Z,0.98
2023-01-13T01:28:35.459Z,1.05
2023-01-13T01:31:09.968Z,1.17
2023-01-13T01:33:36.681Z,2.42
2023-01-13T01:36:04.038Z,2.95
2023-01-13T01:38:30.680Z,3.38
2023-01-13T01:40:57.317Z,0.52
2023-01-13T01:43:59.220Z,1.85
2023-01-13T01:46:34.927Z,1.05
2023-01-13T01:49:22.822Z,1.23
2023-01-13T01:52:04.389Z,0.57
2023-01-13T01:54:39.797Z,0.40
2023-01-13T01:57:10.297Z,2.35
2023-01-13T01:59:38.194Z,1.35
2023-01-13T02:02:05.552Z,1.08
2023-01-13T02:04:38.551Z,2.75
2023-01-13T02:07:05.921Z,6.13
2023-01-13T02:09:33.288Z,1.30
2023-01-13T02:12:18.480Z,2.72
2023-01-13T02:14:45.805Z,2.30
2023-01-13T02:17:52.024Z,1.85
2023-01-13T02:20:52.581Z,1.70
2023-01-13T02:24:26.863Z,1.85
2023-01-13T02:27:24.039Z,2.58
2023-01-13T02:30:34.609Z,0.77
2023-01-13T02:33:29.689Z,1.05
2023-01-13T02:36:29.947Z,1.13
2023-01-13T02:39:29.864Z,2.25
2023-01-13T02:42:30.027Z,2.03
2023-01-13T02:45:10.733Z,0.60
2023-01-13T02:47:42.284Z,0.70
2023-01-13T02:50:17.335Z,5.43
2023-01-13T02:52:50.939Z,3.63
2023-01-13T02:55:22.089Z,0.70
2023-01-13T02:57:50.860Z,0.70
2023-01-13T03:00:19.600Z,0.93
2023-01-13T03:02:48.337Z,3.20
2023-01-13T03:05:16.800Z,1.08
2023-01-13T03:08:24.903Z,1.15
2023-01-13T03:11:01.848Z,1.25
2023-01-13T03:14:02.133Z,1.75
2023-01-13T03:16:38.478Z,1.38
2023-01-13T03:20:06.806Z,1.52
2023-01-13T03:22:57.471Z,0.77
2023-01-13T03:25:33.017Z,3.03
2023-01-13T03:28:04.930Z,1.00
2023-01-13T03:30:43.630Z,0.60
2023-01-13T03:33:16.848Z,2.10
2023-01-13T03:35:50.643Z,1.00
2023-01-13T03:38:40.864Z,0.77
2023-01-13T03:41:13.811Z,3.63
2023-01-13T03:44:22.721Z,4.53
2023-01-13T03:47:19.674Z,1.85
2023-01-13T03:50:12.014Z,9.85
2023-01-13T03:52:47.539Z,7.60
2023-01-13T03:55:20.906Z,14.75
2023-01-13T03:58:06.812Z,21.60
2023-01-13T04:00:40.357Z,8.35
2023-01-13T04:03:23.775Z,9.77
2023-01-13T04:05:57.210Z,19.02
2023-01-13T04:08:28.303Z,13.68
2023-01-13T04:11:07.998Z,19.25
2023-01-13T04:13:40.278Z,9.65
2023-01-13T04:16:08.840Z,22.20
2023-01-13T04:18:38.740Z,26.73
2023-01-13T04:21:06.741Z,10.65
2023-01-13T04:23:33.938Z,14.35
2023-01-13T04:26:00.895Z,12.68
2023-01-13T04:28:27.645Z,15.05
2023-01-13T04:30:54.337Z,7.97
2023-01-13T04:33:21.095Z,6.93
2023-01-13T04:35:48.347Z,2.25
2023-01-13T04:38:17.600Z,3.47
2023-01-13T04:40:44.689Z,3.03
2023-01-13T04:43:11.334Z,3.00
2023-01-13T04:45:38.433Z,5.45
2023-01-13T04:48:05.455Z,4.60
2023-01-13T04:50:32.097Z,3.40
2023-01-13T04:53:00.412Z,1.73
2023-01-13T04:55:27.986Z,3.97
2023-01-13T04:57:54.673Z,10.77
2023-01-13T05:00:23.535Z,1.75
2023-01-13T05:02:51.464Z,2.70
2023-01-13T05:05:18.642Z,2.10
2023-01-13T05:07:45.553Z,1.25
2023-01-13T05:10:12.487Z,1.45
2023-01-13T05:12:57.950Z,5.10
2023-01-13T05:15:43.264Z,2.25
2023-01-13T05:18:10.276Z,3.22
2023-01-13T05:20:37.023Z,4.85
2023-01-13T05:23:22.699Z,3.15
2023-01-13T05:25:50.254Z,3.88
2023-01-13T05:28:17.082Z,4.28
2023-01-13T05:30:46.379Z,1.35
2023-01-13T05:33:17.327Z,34.50
2023-01-13T05:35:46.058Z,26.65
2023-01-13T05:38:13.553Z,15.95
2023-01-13T05:40:59.852Z,5.32
2023-01-13T05:43:27.298Z,2.78
2023-01-13T05:46:01.896Z,13.10
2023-01-13T05:48:34.541Z,15.63
2023-01-13T05:53:29.403Z,3.50
2023-01-13T05:55:56.265Z,12.43
2023-01-13T05:58:25.468Z,10.07
2023-01-13T06:00:52.098Z,7.50
2023-01-13T06:03:20.145Z,65.78
2023-01-13T06:05:47.597Z,15.73
2023-01-13T06:08:14.964Z,13.00
2023-01-13T06:10:41.648Z,8.32
2023-01-13T06:13:08.338Z,4.65
2023-01-13T06:15:34.972Z,7.28
2023-01-13T06:18:05.145Z,8.05
2023-01-13T06:20:32.183Z,2.38
2023-01-13T06:22:59.832Z,3.67
2023-01-13T06:25:36.583Z,9.02
2023-01-13T06:28:03.570Z,2.90
2023-01-13T06:30:38.516Z,4.20
2023-01-13T06:33:09.179Z,8.05
2023-01-13T06:35:39.411Z,14.02
2023-01-13T06:38:10.546Z,7.63
2023-01-13T06:40:37.313Z,5.13
2023-01-13T06:43:16.842Z,7.22
2023-01-13T06:45:47.735Z,6.88
2023-01-13T06:48:15.100Z,9.02
2023-01-13T06:50:42.330Z,9.70
2023-01-13T06:53:09.600Z,5.43
2023-01-13T06:55:36.928Z,6.80
2023-01-13T06:58:03.705Z,7.38
2023-01-13T07:00:32.347Z,8.10
2023-01-13T07:03:16.256Z,17.17
2023-01-13T07:05:43.951Z,19.02
2023-01-13T07:08:11.171Z,9.93
2023-01-13T07:10:38.135Z,9.10
2023-01-13T07:13:24.824Z,7.90
2023-01-13T07:15:56.060Z,10.10
2023-01-13T07:18:22.848Z,7.95
2023-01-13T07:20:57.396Z,7.35
2023-01-13T07:23:25.372Z,6.68
2023-01-13T07:25:52.008Z,7.95
2023-01-13T07:28:18.646Z,4.47
2023-01-13T07:30:45.253Z,5.45
2023-01-13T07:33:11.851Z,8.55
2023-01-13T07:35:38.505Z,6.70
2023-01-13T07:38:05.167Z,5.82
2023-01-13T07:40:31.881Z,5.65
2023-01-13T07:43:17.234Z,5.30
2023-01-13T07:45:44.010Z,12.55
2023-01-13T07:48:10.877Z,6.35
2023-01-13T07:50:37.768Z,2.88
2023-01-13T07:53:04.657Z,8.75
2023-01-13T07:55:31.285Z,8.55
2023-01-13T07:57:57.903Z,12.18
2023-01-13T08:00:24.593Z,5.05
2023-01-13T08:02:51.260Z,10.57
2023-01-13T08:05:18.261Z,7.40
2023-01-13T08:07:44.888Z,6.60
2023-01-13T08:10:11.820Z,8.95
2023-01-13T08:12:57.331Z,6.40
2023-01-13T08:15:23.937Z,7.25
2023-01-13T08:17:50.563Z,6.85
2023-01-13T08:20:17.399Z,5.55
2023-01-13T08:22:44.407Z,12.00
2023-01-13T08:25:11.195Z,9.57
2023-01-13T08:27:38.151Z,11.52
2023-01-13T08:30:05.871Z,7.25
2023-01-13T08:32:32.534Z,8.18
2023-01-13T08:34:59.188Z,10.68
2023-01-13T08:37:25.893Z,6.78
2023-01-13T08:39:52.566Z,8.85
2023-01-13T08:42:19.197Z,10.10
2023-01-13T08:44:45.819Z,8.30
2023-01-13T08:47:12.488Z,7.93
2023-01-13T08:49:39.209Z,8.05
2023-01-13T08:52:05.863Z,7.22
2023-01-13T08:54:32.504Z,8.23
2023-01-13T08:56:59.266Z,16.35
2023-01-13T08:59:25.949Z,7.57
2023-01-13T09:01:52.750Z,8.65
2023-01-13T09:04:22.804Z,4.82
2023-01-13T09:06:50.665Z,9.20
2023-01-13T09:09:18.139Z,6.50
2023-01-13T09:12:05.962Z,10.98
2023-01-13T09:14:35.883Z,7.35
2023-01-13T09:17:03.067Z,9.75
2023-01-13T09:19:30.446Z,18.75
2023-01-13T09:21:57.499Z,7.63
2023-01-13T09:24:25.038Z,7.28
2023-01-13T09:26:52.041Z,12.40
2023-01-13T09:29:19.142Z,11.50
2023-01-13T09:31:46.507Z,7.40
2023-01-13T09:34:48.334Z,7.45
2023-01-13T09:37:14.981Z,6.95
2023-01-13T09:39:41.645Z,5.93
2023-01-13T09:43:00.536Z,8.77
2023-01-13T09:45:50.371Z,7.00
2023-01-13T09:48:30.268Z,7.18
2023-01-13T09:51:20.995Z,7.05
2023-01-13T09:53:59.889Z,9.73
2023-01-13T09:56:26.750Z,4.97
2023-01-13T09:58:53.437Z,6.90
2023-01-13T10:01:51.722Z,8.88
2023-01-13T10:04:18.591Z,7.18
2023-01-13T10:06:52.026Z,6.30
2023-01-13T10:09:27.651Z,5.82
2023-01-13T10:12:16.720Z,5.50
2023-01-13T10:14:52.918Z,5.40
2023-01-13T10:17:42.966Z,6.90
2023-01-13T10:20:45.957Z,6.55
2023-01-13T10:24:04.829Z,7.97
2023-01-13T10:27:10.188Z,5.85
2023-01-13T10:29:37.090Z,5.18
2023-01-13T10:32:04.050Z,5.75
2023-01-13T10:34:30.850Z,12.05
2023-01-13T10:37:03.300Z,4.47
2023-01-13T10:39:41.276Z,4.28
2023-01-13T10:42:14.015Z,9.20
2023-01-13T10:44:57.950Z,7.35
2023-01-13T10:47:33.846Z,9.50
2023-01-13T10:50:28.649Z,10.77
2023-01-13T10:53:01.483Z,9.20
2023-01-13T10:55:38.530Z,8.40
2023-01-13T10:58:18.349Z,5.15
2023-01-13T11:00:46.004Z,9.25
2023-01-13T11:03:20.657Z,12.90
2023-01-13T11:05:58.040Z,13.77
2023-01-13T11:08:28.259Z,6.93
2023-01-13T11:10:59.604Z,9.27
2023-01-13T11:13:57.566Z,9.18
2023-01-13T11:16:26.028Z,5.18
2023-01-13T11:19:12.116Z,12.40
2023-01-13T11:21:50.397Z,9.30
2023-01-13T11:24:42.100Z,10.15
2023-01-13T11:27:45.946Z,9.43
2023-01-13T11:31:05.117Z,9.80
2023-01-13T11:34:01.331Z,8.48
2023-01-13T11:36:39.809Z,6.97
2023-01-13T11:39:23.654Z,7.90
2023-01-13T11:42:16.230Z,5.15
2023-01-13T11:44:56.024Z,7.70
2023-01-13T11:47:24.781Z,7.85
2023-01-13T11:49:51.482Z,9.55
2023-01-13T11:52:44.956Z,9.25
2023-01-13T11:55:39.786Z,9.30
2023-01-13T11:58:51.073Z,6.63
2023-01-13T12:01:57.123Z,5.25
2023-01-13T12:04:28.574Z,3.67
2023-01-13T12:07:17.429Z,6.18
2023-01-13T12:10:32.123Z,2.88
2023-01-13T12:13:46.412Z,2.92
2023-01-13T12:16:31.489Z,2.03
2023-01-13T12:19:29.739Z,2.90
2023-01-13T12:22:20.697Z,2.45
2023-01-13T12:25:28.957Z,1.92
2023-01-13T12:28:01.719Z,3.13
2023-01-13T12:30:56.559Z,5.38
2023-01-13T12:34:25.588Z,9.18
2023-01-13T12:37:22.689Z,6.78
2023-01-13T12:40:19.778Z,8.57
2023-01-13T12:43:34.233Z,9.93
2023-01-13T12:46:38.955Z,8.07
2023-01-13T12:49:06.957Z,6.43
2023-01-13T12:51:57.182Z,5.70
2023-01-13T12:55:03.916Z,5.72
2023-01-13T12:57:33.590Z,7.00
2023-01-13T13:00:20.635Z,4.10
2023-01-13T13:03:30.827Z,7.07
2023-01-13T13:09:33.676Z,10.18
2023-01-13T13:12:57.512Z,9.18
2023-01-13T13:15:27.106Z,8.02
2023-01-13T13:18:25.095Z,7.68
2023-01-13T13:21:17.908Z,10.02
2023-01-13T13:23:57.583Z,12.88
2023-01-13T13:26:46.667Z,12.38
2023-01-13T13:29:49.917Z,7.40
2023-01-13T13:32:50.411Z,11.23
2023-01-13T13:35:59.066Z,8.85
2023-01-13T13:39:16.524Z,10.80
2023-01-13T13:42:05.775Z,5.10
2023-01-13T13:45:01.436Z,4.65
2023-01-13T13:47:38.553Z,6.90
2023-01-13T13:50:09.929Z,7.93
2023-01-13T13:53:08.411Z,9.30
2023-01-13T13:55:36.672Z,9.95
2023-01-13T13:58:03.817Z,9.43
2023-01-13T14:00:38.138Z,7.28
2023-01-13T14:03:22.851Z,10.65
2023-01-13T14:05:59.387Z,14.27
2023-01-13T14:08:28.562Z,10.70
2023-01-13T14:10:55.505Z,4.80
2023-01-13T14:13:25.596Z,11.38
2023-01-13T14:16:01.265Z,8.07
2023-01-13T14:18:30.701Z,5.05
2023-01-13T14:21:04.758Z,7.25
2023-01-13T14:23:33.228Z,8.02
2023-01-13T14:26:08.805Z,5.85
2023-01-13T14:28:40.223Z,13.35
2023-01-13T14:31:09.218Z,3.17
2023-01-13T14:33:39.175Z,4.88
2023-01-13T14:36:18.927Z,5.40
2023-01-13T14:39:03.740Z,3.90
2023-01-13T14:41:45.384Z,5.68
2023-01-13T14:44:34.865Z,4.00
2023-01-13T14:47:15.562Z,4.50
2023-01-13T14:50:00.375Z,6.32
2023-01-13T14:52:29.640Z,5.72
2023-01-13T14:55:23.471Z,3.13
2023-01-13T14:57:50.308Z,5.53
2023-01-13T15:00:24.282Z,8.98
2023-01-13T15:03:08.690Z,5.43
2023-01-13T15:05:39.824Z,2.45
2023-01-13T15:08:31.987Z,3.67
2023-01-13T15:11:01.324Z,4.43
2023-01-13T15:13:53.747Z,3.75
2023-01-13T15:16:25.599Z,5.22
2023-01-13T15:18:53.628Z,3.33
2023-01-13T15:21:20.652Z,5.22
2023-01-13T15:23:47.427Z,4.38
2023-01-13T15:26:20.267Z,3.60
2023-01-13T15:28:47.714Z,3.35
2023-01-13T15:31:14.477Z,3.22
2023-01-13T15:33:41.764Z,2.20
2023-01-13T15:36:36.868Z,3.85
2023-01-13T15:39:04.297Z,4.68
2023-01-13T15:41:49.788Z,3.50
2023-01-13T15:44:35.747Z,2.63
2023-01-13T15:47:06.524Z,2.58
2023-01-13T15:49:37.599Z,5.50
2023-01-13T15:52:09.777Z,2.38
2023-01-13T15:54:36.587Z,6.97
2023-01-13T15:57:03.303Z,4.60
2023-01-13T15:59:29.930Z,3.75
2023-01-13T16:01:56.567Z,4.53
2023-01-13T16:04:23.194Z,3.30
2023-01-13T16:06:49.900Z,1.40
2023-01-13T16:09:16.979Z,4.07
2023-01-13T16:11:43.912Z,1.95
2023-01-13T16:14:10.606Z,2.28
2023-01-13T16:16:37.651Z,4.32
2023-01-13T16:19:04.447Z,2.65
2023-01-13T16:21:31.147Z,1.83
2023-01-13T16:23:57.771Z,1.75
2023-01-13T16:26:27.593Z,1.50
2023-01-13T16:28:55.984Z,3.47
2023-01-13T16:31:30.577Z,3.22
2023-01-13T16:33:58.661Z,1.25
2023-01-13T16:36:25.615Z,4.82
2023-01-13T16:38:53.148Z,2.80
2023-01-13T16:41:21.490Z,0.55
2023-01-13T16:43:48.896Z,1.25
2023-01-13T16:46:28.871Z,3.17
2023-01-13T16:48:57.831Z,0.40
2023-01-13T16:51:24.931Z,1.85
2023-01-13T16:53:51.692Z,1.27
2023-01-13T16:56:35.752Z,0.40
2023-01-13T16:59:10.722Z,0.75
2023-01-13T17:01:40.260Z,0.88
2023-01-13T17:04:07.349Z,0.63
2023-01-13T17:06:42.043Z,0.55
2023-01-13T17:09:23.905Z,0.47
2023-01-13T17:11:51.315Z,0.90
2023-01-13T17:14:19.577Z,1.05
2023-01-13T17:16:46.908Z,2.25
2023-01-13T17:19:14.325Z,0.85
2023-01-13T17:21:41.051Z,0.73
2023-01-13T17:24:10.641Z,1.88
2023-01-13T17:26:45.439Z,0.70
2023-01-13T17:29:14.932Z,5.72
2023-01-13T17:31:42.039Z,0.90
2023-01-13T17:34:08.751Z,1.23
2023-01-13T17:36:35.398Z,3.05
2023-01-13T17:39:02.040Z,0.98
2023-01-13T17:41:28.672Z,1.80
2023-01-13T17:43:55.338Z,4.97
2023-01-13T17:46:22.900Z,3.30
2023-01-13T17:48:54.019Z,3.15
2023-01-13T17:51:22.626Z,4.03
2023-01-13T17:53:49.544Z,1.95
2023-01-13T17:56:17.116Z,1.00
2023-01-13T17:58:45.427Z,1.83
2023-01-13T18:01:17.916Z,2.95
2023-01-13T18:03:44.970Z,2.08
2023-01-13T18:06:17.400Z,3.50
2023-01-13T18:08:44.600Z,1.30
2023-01-13T18:11:11.347Z,5.63
2023-01-13T18:13:39.745Z,2.22
2023-01-13T18:16:09.819Z,1.42
2023-01-13T18:18:36.686Z,1.27
2023-01-13T18:21:22.701Z,2.67
2023-01-13T18:24:15.552Z,3.55
2023-01-13T18:27:00.773Z,1.48
2023-01-13T18:29:27.390Z,1.38
2023-01-13T18:31:54.046Z,0.60
2023-01-13T18:34:21.035Z,1.52
2023-01-13T18:36:47.695Z,2.95
2023-01-13T18:39:14.432Z,2.75
2023-01-13T18:41:59.673Z,1.05
2023-01-13T18:44:26.305Z,7.22
2023-01-13T18:46:52.927Z,1.27
2023-01-13T18:49:19.567Z,1.38
2023-01-13T18:51:46.165Z,2.22
2023-01-13T18:54:12.740Z,1.00
2023-01-13T18:56:39.443Z,1.92
2023-01-13T18:59:06.081Z,0.98
2023-01-13T19:01:32.841Z,4.82
2023-01-13T19:04:02.881Z,2.63
2023-01-13T19:06:32.705Z,1.58
2023-01-13T19:09:01.617Z,2.22
2023-01-13T19:11:30.548Z,2.10
2023-01-13T19:13:57.126Z,1.25
2023-01-13T19:16:23.761Z,1.70
2023-01-13T19:18:50.379Z,3.58
2023-01-13T19:21:16.998Z,12.65
2023-01-13T19:23:43.580Z,4.38
2023-01-13T19:26:11.929Z,6.45
2023-01-13T19:28:40.330Z,4.28
2023-01-13T19:31:11.984Z,7.03
2023-01-13T19:33:40.276Z,2.03
2023-01-13T19:36:09.618Z,6.15
2023-01-13T19:38:37.106Z,11.90
2023-01-13T19:41:27.819Z,4.32
2023-01-13T19:44:14.784Z,92.97
2023-01-13T19:46:41.859Z,156.93
2023-01-13T19:49:08.471Z,40.58
2023-01-13T19:51:35.081Z,43.83
2023-01-13T19:54:01.879Z,43.17
2023-01-13T19:56:29.493Z,25.58
2023-01-13T19:58:56.793Z,26.98
2023-01-13T20:01:30.323Z,17.88
2023-01-13T20:04:02.782Z,4.70
2023-01-13T20:06:31.788Z,2.65
2023-01-13T20:08:58.744Z,9.52
2023-01-13T20:11:31.206Z,1.48
2023-01-13T20:16:34.154Z,3.08
2023-01-13T20:19:00.855Z,4.82
2023-01-13T20:21:27.527Z,1.70
2023-01-13T20:23:54.161Z,2.33
2023-01-13T20:26:21.066Z,3.17
2023-01-13T20:28:48.020Z,1.60
2023-01-13T20:31:15.738Z,1.80
2023-01-13T20:33:42.931Z,2.47
2023-01-13T20:36:24.671Z,3.22
2023-01-13T20:38:51.614Z,2.03
2023-01-13T20:41:37.031Z,2.88
2023-01-13T20:44:03.732Z,2.13
2023-01-13T20:46:30.376Z,4.43
2023-01-13T20:48:57.009Z,3.22
2023-01-13T20:51:23.562Z,5.13
2023-01-13T20:53:50.129Z,2.17
2023-01-13T20:56:16.675Z,0.80
2023-01-13T20:58:44.127Z,2.50
2023-01-13T21:01:10.854Z,2.83
2023-01-13T21:03:37.849Z,3.10
2023-01-13T21:06:04.694Z,1.48
2023-01-13T21:08:31.526Z,1.15
2023-01-13T21:11:05.376Z,1.67
2023-01-13T21:13:51.246Z,4.35
2023-01-13T21:16:17.953Z,5.30
2023-01-13T21:19:02.984Z,3.05
2023-01-13T21:21:29.696Z,2.55
2023-01-13T21:23:56.348Z,3.85
2023-01-13T21:26:23.049Z,2.40
2023-01-13T21:28:50.224Z,4.20
2023-01-13T21:31:17.807Z,6.78
2023-01-13T21:33:47.487Z,5.30
2023-01-13T21:36:15.164Z,8.32
2023-01-13T21:38:42.267Z,1.60
2023-01-13T21:41:09.840Z,1.48
2023-01-13T21:43:56.995Z,6.70
2023-01-13T21:46:42.411Z,5.00
2023-01-13T21:49:09.631Z,5.70
2023-01-13T21:51:37.174Z,5.68
2023-01-13T21:54:04.001Z,1.98
2023-01-13T21:56:30.736Z,3.00
2023-01-13T21:58:57.431Z,3.17
2023-01-13T22:01:24.104Z,2.80
2023-01-13T22:04:09.525Z,2.33
2023-01-13T22:06:36.210Z,1.40
2023-01-13T22:09:03.082Z,6.25
2023-01-13T22:11:30.121Z,5.20
2023-01-13T22:14:06.559Z,2.60
2023-01-13T22:16:48.702Z,1.90
2023-01-13T22:19:15.492Z,3.10
2023-01-13T22:21:42.129Z,2.42
2023-01-13T22:24:09.645Z,3.63
2023-01-13T22:26:36.346Z,9.27
2023-01-13T22:29:03.032Z,3.50
2023-01-13T22:31:31.576Z,3.05
2023-01-13T22:33:58.268Z,3.13
2023-01-13T22:36:25.010Z,1.73
2023-01-13T22:38:56.290Z,4.72
2023-01-13T22:41:23.325Z,3.47
2023-01-13T22:43:49.954Z,4.20
2023-01-13T22:46:17.156Z,3.88
2023-01-13T22:48:44.242Z,1.60
2023-01-13T22:51:13.695Z,2.30
2023-01-13T22:53:40.878Z,1.65
2023-01-13T22:56:08.418Z,1.95
2023-01-13T22:58:35.062Z,5.45
2023-01-13T23:01:13.738Z,1.88
2023-01-13T23:03:41.033Z,4.38
2023-01-13T23:06:08.111Z,1.23
2023-01-13T23:08:35.723Z,3.53
2023-01-13T23:11:10.046Z,1.38
2023-01-13T23:13:38.247Z,1.88
2023-01-13T23:16:07.436Z,2.17
2023-01-13T23:18:34.321Z,4.07
2023-01-13T23:21:12.183Z,3.13
2023-01-13T23:23:39.758Z,3.45
2023-01-13T23:26:07.285Z,3.90
2023-01-13T23:28:35.560Z,1.83
2023-01-13T23:31:14.278Z,6.00
2023-01-13T23:33:41.401Z,4.25
2023-01-13T23:36:12.947Z,4.78
2023-01-13T23:38:40.782Z,1.65
2023-01-13T23:41:12.017Z,2.15
2023-01-13T23:43:38.638Z,1.85
2023-01-13T23:46:08.533Z,2.30
2023-01-13T23:48:35.719Z,3.45
2023-01-13T23:51:05.134Z,2.72
2023-01-13T23:53:35.260Z,1.52
2023-01-13T23:56:02.982Z,2.70
2023-01-13T23:58:29.829Z,1.08
